createdAt,value
2022-11-06T00:00:48.359Z,56.38
2022-11-06T00:03:15.779Z,66.18
2022-11-06T00:06:01.969Z,68.63
2022-11-06T00:08:30.508Z,68.47
2022-11-06T00:10:58.124Z,62.38
2022-11-06T00:13:25.275Z,63.40
2022-11-06T00:15:52.581Z,65.45
2022-11-06T00:18:20.134Z,61.00
2022-11-06T00:20:47.284Z,66.57
2022-11-06T00:23:14.594Z,70.72
2022-11-06T00:25:41.820Z,62.70
2022-11-06T00:28:09.051Z,69.47
2022-11-06T00:30:36.404Z,66.88
2022-11-06T00:33:03.846Z,67.63
2022-11-06T00:35:30.980Z,65.53
2022-11-06T00:37:58.251Z,66.80
2022-11-06T00:40:25.430Z,69.18
2022-11-06T00:42:54.384Z,68.63
2022-11-06T00:45:21.569Z,64.85
2022-11-06T00:47:48.717Z,57.40
2022-11-06T00:50:16.016Z,67.13
2022-11-06T00:52:43.329Z,56.35
2022-11-06T00:55:10.563Z,58.20
2022-11-06T00:57:37.756Z,61.92
2022-11-06T01:00:05.447Z,64.97
2022-11-06T01:02:32.766Z,62.15
2022-11-06T01:05:00.009Z,62.83
2022-11-06T01:07:27.610Z,60.42
2022-11-06T01:09:54.745Z,57.40
2022-11-06T01:12:21.861Z,65.80
2022-11-06T01:14:49.172Z,59.50
2022-11-06T01:17:16.313Z,60.72
2022-11-06T01:19:43.501Z,56.95
2022-11-06T01:22:10.952Z,58.60
2022-11-06T01:24:38.270Z,61.97
2022-11-06T01:27:25.352Z,58.53
2022-11-06T01:29:52.676Z,59.00
2022-11-06T01:32:19.830Z,55.53
2022-11-06T01:34:47.045Z,62.15
2022-11-06T01:37:15.109Z,55.85
2022-11-06T01:39:42.377Z,59.70
2022-11-06T01:42:11.908Z,57.83
2022-11-06T01:44:45.503Z,56.42
2022-11-06T01:47:19.898Z,56.92
2022-11-06T01:49:47.284Z,53.10
2022-11-06T01:52:15.478Z,56.83
2022-11-06T01:54:43.656Z,57.75
2022-11-06T01:57:11.382Z,59.95
2022-11-06T01:59:40.669Z,61.72
2022-11-06T02:02:08.281Z,61.15
2022-11-06T02:04:38.063Z,57.67
2022-11-06T02:07:05.884Z,55.10
2022-11-06T02:09:33.625Z,53.25
2022-11-06T02:12:00.788Z,53.38
2022-11-06T02:14:37.435Z,56.17
2022-11-06T02:17:16.491Z,56.97
2022-11-06T02:19:46.859Z,57.67
2022-11-06T02:22:29.323Z,54.37
2022-11-06T02:25:30.186Z,56.75
2022-11-06T02:28:05.159Z,53.45
2022-11-06T02:30:35.543Z,52.33
2022-11-06T02:33:05.961Z,55.87
2022-11-06T02:35:35.622Z,58.97
2022-11-06T02:38:10.933Z,55.63
2022-11-06T02:40:40.192Z,49.83
2022-11-06T02:43:08.616Z,52.78
2022-11-06T02:46:08.137Z,58.45
2022-11-06T02:48:38.059Z,52.38
2022-11-06T02:51:06.287Z,52.00
2022-11-06T02:53:33.814Z,59.83
2022-11-06T02:56:05.422Z,55.42
2022-11-06T02:58:38.981Z,57.38
2022-11-06T03:01:16.556Z,53.92
2022-11-06T03:03:48.318Z,59.58
2022-11-06T03:06:18.438Z,55.78
2022-11-06T03:08:50.379Z,56.20
2022-11-06T03:11:35.873Z,57.33
2022-11-06T03:14:03.137Z,61.45
2022-11-06T03:16:30.362Z,55.75
2022-11-06T03:19:11.010Z,58.42
2022-11-06T03:22:16.915Z,54.78
2022-11-06T03:24:52.598Z,59.05
2022-11-06T03:27:45.976Z,51.63
2022-11-06T03:30:16.697Z,52.58
2022-11-06T03:32:50.363Z,57.58
2022-11-06T03:35:26.768Z,51.30
2022-11-06T03:37:57.122Z,58.00
2022-11-06T03:40:26.208Z,55.77
2022-11-06T03:42:55.685Z,50.33
2022-11-06T03:45:25.576Z,51.10
2022-11-06T03:48:11.839Z,57.72
2022-11-06T03:50:43.916Z,58.72
2022-11-06T03:53:16.620Z,59.38
2022-11-06T03:55:49.968Z,58.72
2022-11-06T03:58:22.883Z,61.47
2022-11-06T04:00:51.340Z,65.13
2022-11-06T04:03:29.703Z,67.50
2022-11-06T04:06:03.532Z,57.53
2022-11-06T04:08:51.694Z,66.07
2022-11-06T04:11:40.362Z,63.25
2022-11-06T04:14:08.448Z,54.95
2022-11-06T04:16:38.168Z,61.92
2022-11-06T04:19:16.180Z,60.38
2022-11-06T04:21:43.262Z,58.28
2022-11-06T04:24:48.023Z,54.80
2022-11-06T04:27:15.105Z,65.07
2022-11-06T04:30:00.713Z,62.78
2022-11-06T04:32:36.738Z,62.95
2022-11-06T04:35:06.674Z,66.22
2022-11-06T04:37:49.074Z,63.35
2022-11-06T04:40:25.956Z,59.88
2022-11-06T04:43:11.965Z,62.05
2022-11-06T04:45:41.485Z,72.22
2022-11-06T04:48:09.488Z,66.13
2022-11-06T04:50:40.440Z,79.85
2022-11-06T04:53:09.538Z,70.93
2022-11-06T04:55:47.546Z,67.38
2022-11-06T04:58:15.531Z,73.80
2022-11-06T05:00:45.319Z,68.20
2022-11-06T05:03:12.522Z,86.75
2022-11-06T05:05:39.813Z,76.35
2022-11-06T05:08:07.077Z,76.68
2022-11-06T05:10:34.221Z,81.40
2022-11-06T05:13:01.399Z,79.15
2022-11-06T05:15:28.723Z,85.75
2022-11-06T05:17:55.839Z,83.97
2022-11-06T05:20:23.198Z,80.18
2022-11-06T05:23:00.583Z,83.35
2022-11-06T05:25:31.978Z,79.82
2022-11-06T05:30:26.546Z,82.43
2022-11-06T05:32:54.138Z,80.55
2022-11-06T05:35:21.780Z,88.45
2022-11-06T05:37:49.078Z,86.35
2022-11-06T05:40:16.594Z,79.80
2022-11-06T05:42:44.654Z,83.75
2022-11-06T05:45:12.523Z,80.13
2022-11-06T05:47:42.688Z,90.18
2022-11-06T05:50:10.266Z,88.82
2022-11-06T05:52:38.019Z,99.30
2022-11-06T05:55:10.173Z,89.93
2022-11-06T05:57:40.492Z,100.10
2022-11-06T06:00:08.452Z,92.07
2022-11-06T06:02:36.648Z,87.10
2022-11-06T06:05:04.913Z,81.45
2022-11-06T06:07:32.797Z,82.75
2022-11-06T06:10:00.268Z,88.78
2022-11-06T06:12:27.506Z,99.25
2022-11-06T06:14:54.953Z,86.45
2022-11-06T06:17:22.232Z,106.60
2022-11-06T06:19:49.406Z,101.25
2022-11-06T06:22:16.736Z,95.90
2022-11-06T06:24:44.010Z,99.45
2022-11-06T06:27:11.329Z,96.82
2022-11-06T06:29:38.807Z,95.78
2022-11-06T06:32:06.127Z,91.60
2022-11-06T06:34:33.264Z,93.00
2022-11-06T06:37:00.533Z,92.97
2022-11-06T06:39:27.684Z,91.20
2022-11-06T06:41:54.824Z,105.22
2022-11-06T06:44:22.114Z,94.90
2022-11-06T06:46:49.280Z,98.05
2022-11-06T06:49:16.408Z,88.78
2022-11-06T06:51:43.626Z,83.75
2022-11-06T06:54:10.860Z,94.57
2022-11-06T06:56:38.050Z,86.38
2022-11-06T06:59:05.238Z,80.35
2022-11-06T07:01:32.516Z,90.70
2022-11-06T07:04:03.879Z,93.68
2022-11-06T07:06:31.836Z,90.28
2022-11-06T07:08:58.996Z,90.28
2022-11-06T07:11:26.184Z,84.78
2022-11-06T07:13:53.390Z,78.85
2022-11-06T07:16:21.789Z,82.18
2022-11-06T07:18:48.919Z,84.93
2022-11-06T07:21:16.170Z,90.18
2022-11-06T07:23:43.319Z,92.63
2022-11-06T07:26:10.449Z,88.78
2022-11-06T07:28:37.821Z,78.93
2022-11-06T07:31:06.418Z,83.90
2022-11-06T07:33:33.781Z,81.38
2022-11-06T07:36:11.169Z,70.32
2022-11-06T07:38:39.217Z,86.10
2022-11-06T07:41:07.761Z,81.07
2022-11-06T07:43:35.432Z,89.07
2022-11-06T07:46:03.741Z,71.28
2022-11-06T07:48:31.300Z,74.72
2022-11-06T07:50:59.137Z,80.30
2022-11-06T07:53:26.297Z,77.25
2022-11-06T07:55:54.278Z,78.13
2022-11-06T07:58:21.674Z,78.85
2022-11-06T08:00:52.429Z,77.78
2022-11-06T08:03:20.015Z,67.55
2022-11-06T08:05:47.302Z,74.45
2022-11-06T08:08:15.049Z,71.40
2022-11-06T08:10:43.756Z,58.40
2022-11-06T08:13:11.857Z,68.68
2022-11-06T08:15:39.285Z,67.95
2022-11-06T08:18:08.053Z,74.30
2022-11-06T08:20:35.742Z,68.97
2022-11-06T08:23:03.556Z,74.22
2022-11-06T08:25:31.554Z,65.40
2022-11-06T08:27:59.734Z,70.97
2022-11-06T08:30:27.932Z,68.93
2022-11-06T08:32:55.735Z,66.88
2022-11-06T08:35:23.176Z,65.38
2022-11-06T08:37:50.307Z,69.68
2022-11-06T08:40:17.633Z,64.50
2022-11-06T08:42:44.800Z,68.00
2022-11-06T08:45:11.952Z,66.22
2022-11-06T08:47:39.062Z,64.80
2022-11-06T08:50:06.539Z,62.10
2022-11-06T08:52:34.326Z,67.22
2022-11-06T08:55:01.792Z,60.75
2022-11-06T08:57:28.996Z,63.85
2022-11-06T08:59:56.106Z,59.95
2022-11-06T09:02:23.333Z,62.65
2022-11-06T09:04:50.538Z,60.65
2022-11-06T09:07:18.093Z,62.30
2022-11-06T09:09:45.204Z,65.47
2022-11-06T09:12:12.449Z,64.15
2022-11-06T09:14:40.214Z,61.65
2022-11-06T09:17:07.522Z,64.10
2022-11-06T09:19:34.682Z,63.10
2022-11-06T09:22:01.807Z,58.05
2022-11-06T09:24:57.176Z,59.28
2022-11-06T09:27:16.895Z,70.55
2022-11-06T09:29:44.591Z,64.43
2022-11-06T09:32:11.913Z,62.63
2022-11-06T09:34:39.189Z,63.00
2022-11-06T09:37:06.317Z,59.95
2022-11-06T09:39:33.472Z,63.10
2022-11-06T09:42:02.670Z,68.60
2022-11-06T09:44:29.824Z,63.55
2022-11-06T09:46:58.656Z,69.03
2022-11-06T09:49:25.900Z,65.75
2022-11-06T09:51:57.451Z,66.70
2022-11-06T09:54:28.933Z,61.08
2022-11-06T09:56:58.753Z,60.45
2022-11-06T09:59:26.400Z,67.75
2022-11-06T10:01:55.914Z,67.50
2022-11-06T10:04:41.660Z,66.50
2022-11-06T10:07:35.259Z,57.15
2022-11-06T10:10:03.223Z,54.97
2022-11-06T10:12:33.493Z,57.97
2022-11-06T10:15:19.643Z,58.78
2022-11-06T10:17:49.607Z,62.55
2022-11-06T10:20:25.437Z,59.25
2022-11-06T10:23:13.532Z,57.88
2022-11-06T10:25:43.460Z,60.72
2022-11-06T10:28:20.602Z,62.85
2022-11-06T10:30:56.489Z,56.20
2022-11-06T10:33:39.621Z,60.08
2022-11-06T10:36:10.954Z,56.72
2022-11-06T10:41:05.439Z,51.70
2022-11-06T10:43:45.028Z,54.10
2022-11-06T10:46:32.381Z,58.47
2022-11-06T10:49:01.462Z,56.20
2022-11-06T10:51:46.975Z,57.30
2022-11-06T10:54:29.451Z,61.85
2022-11-06T10:57:03.131Z,67.22
2022-11-06T10:59:30.580Z,64.25
2022-11-06T11:01:57.811Z,55.35
2022-11-06T11:04:25.051Z,50.53
2022-11-06T11:06:52.232Z,54.42
2022-11-06T11:09:29.304Z,50.33
2022-11-06T11:11:56.611Z,54.45
2022-11-06T11:14:25.349Z,47.10
2022-11-06T11:16:52.883Z,47.00
2022-11-06T11:19:27.763Z,43.75
2022-11-06T11:21:56.284Z,51.92
2022-11-06T11:24:23.591Z,52.53
2022-11-06T11:26:53.438Z,52.35
2022-11-06T11:29:27.998Z,56.53
2022-11-06T11:31:57.626Z,49.38
2022-11-06T11:34:26.637Z,54.92
2022-11-06T11:37:00.075Z,55.90
2022-11-06T11:39:47.448Z,52.13
2022-11-06T11:42:17.859Z,45.03
2022-11-06T11:44:45.064Z,46.50
2022-11-06T11:47:23.032Z,53.35
2022-11-06T11:49:50.262Z,51.30
2022-11-06T11:52:19.500Z,54.85
2022-11-06T11:54:48.901Z,51.72
2022-11-06T11:57:20.487Z,56.28
2022-11-06T11:59:55.201Z,57.20
2022-11-06T12:02:29.527Z,55.28
2022-11-06T12:05:01.510Z,43.85
2022-11-06T12:07:36.597Z,47.05
2022-11-06T12:10:15.512Z,59.05
2022-11-06T12:12:48.990Z,61.88
2022-11-06T12:15:19.505Z,58.50
2022-11-06T12:17:55.325Z,47.60
2022-11-06T12:20:25.569Z,64.05
2022-11-06T12:22:53.248Z,57.20
2022-11-06T12:25:22.611Z,62.63
2022-11-06T12:27:54.890Z,67.22
2022-11-06T12:30:22.449Z,60.45
2022-11-06T12:32:55.804Z,68.00
2022-11-06T12:35:22.924Z,71.85
2022-11-06T12:37:59.139Z,62.20
2022-11-06T12:40:30.050Z,61.63
2022-11-06T12:42:57.370Z,65.50
2022-11-06T12:45:27.738Z,57.83
2022-11-06T12:47:59.988Z,46.20
2022-11-06T12:50:36.689Z,61.67
2022-11-06T12:53:06.838Z,61.78
2022-11-06T12:55:41.583Z,61.45
2022-11-06T12:58:34.767Z,58.15
2022-11-06T13:01:08.244Z,60.03
2022-11-06T13:03:44.945Z,56.17
2022-11-06T13:06:18.074Z,57.13
2022-11-06T13:08:51.675Z,67.18
2022-11-06T13:11:18.947Z,68.78
2022-11-06T13:13:50.292Z,60.47
2022-11-06T13:18:53.254Z,64.97
2022-11-06T13:21:23.540Z,66.00
2022-11-06T13:23:50.811Z,59.13
2022-11-06T13:26:20.990Z,64.75
2022-11-06T13:28:56.194Z,66.40
2022-11-06T13:31:26.251Z,71.88
2022-11-06T13:33:56.766Z,62.53
2022-11-06T13:36:24.498Z,61.25
2022-11-06T13:38:55.161Z,66.78
2022-11-06T13:41:24.374Z,62.95
2022-11-06T13:44:01.424Z,61.47
2022-11-06T13:46:42.186Z,58.10
2022-11-06T13:49:23.535Z,54.80
2022-11-06T13:51:51.515Z,50.28
2022-11-06T13:54:18.738Z,54.88
2022-11-06T13:56:54.826Z,46.78
2022-11-06T13:59:23.933Z,51.13
2022-11-06T14:01:55.460Z,46.30
2022-11-06T14:06:53.095Z,46.78
2022-11-06T14:09:21.801Z,49.17
2022-11-06T14:11:59.307Z,50.17
2022-11-06T14:14:28.295Z,48.00
2022-11-06T14:17:14.218Z,49.95
2022-11-06T14:19:47.653Z,49.40
2022-11-06T14:22:32.385Z,50.55
2022-11-06T14:25:02.097Z,45.92
2022-11-06T14:27:29.665Z,47.33
2022-11-06T14:30:08.049Z,47.95
2022-11-06T14:32:37.388Z,47.65
2022-11-06T14:35:24.344Z,48.00
2022-11-06T14:37:51.471Z,47.08
2022-11-06T14:40:32.644Z,50.70
2022-11-06T14:42:59.963Z,49.30
2022-11-06T14:45:28.498Z,48.33
2022-11-06T14:47:56.909Z,47.67
2022-11-06T14:50:29.344Z,53.80
2022-11-06T14:52:59.504Z,53.50
2022-11-06T14:55:26.681Z,51.10
2022-11-06T14:57:54.704Z,44.25
2022-11-06T15:00:36.335Z,52.85
2022-11-06T15:03:05.253Z,51.00
2022-11-06T15:05:42.161Z,50.47
2022-11-06T15:08:09.856Z,57.22
2022-11-06T15:10:43.167Z,48.75
2022-11-06T15:13:21.055Z,58.53
2022-11-06T15:15:53.822Z,50.97
2022-11-06T15:18:24.789Z,58.47
2022-11-06T15:21:00.522Z,61.40
2022-11-06T15:23:42.638Z,60.70
2022-11-06T15:26:36.166Z,63.67
2022-11-06T15:29:19.168Z,58.75
2022-11-06T15:31:48.231Z,56.45
2022-11-06T15:34:30.248Z,61.97
2022-11-06T15:37:02.966Z,64.88
2022-11-06T15:39:30.074Z,65.50
2022-11-06T15:41:57.525Z,59.35
2022-11-06T15:44:25.880Z,65.28
2022-11-06T15:46:58.001Z,58.60
2022-11-06T15:49:26.217Z,60.10
2022-11-06T15:51:56.033Z,57.45
2022-11-06T15:54:36.020Z,57.70
2022-11-06T15:57:06.154Z,60.33
2022-11-06T15:59:33.308Z,62.05
2022-11-06T16:02:04.760Z,94.25
2022-11-06T16:04:32.535Z,49.22
2022-11-06T16:07:01.171Z,55.83
2022-11-06T16:09:28.737Z,53.78
2022-11-06T16:11:56.260Z,53.50
2022-11-06T16:14:23.549Z,52.95
2022-11-06T16:16:55.091Z,53.10
2022-11-06T16:19:22.276Z,55.15
2022-11-06T16:21:52.780Z,58.08
2022-11-06T16:24:20.073Z,57.42
2022-11-06T16:26:51.270Z,49.92
2022-11-06T16:29:20.663Z,42.30
2022-11-06T16:31:48.414Z,45.95
2022-11-06T16:34:33.597Z,53.30
2022-11-06T16:37:03.669Z,52.67
2022-11-06T16:39:47.762Z,54.72
2022-11-06T16:42:22.556Z,57.00
2022-11-06T16:45:11.348Z,56.80
2022-11-06T16:47:40.724Z,55.90
2022-11-06T16:50:28.060Z,54.80
2022-11-06T16:52:55.303Z,55.20
2022-11-06T16:55:28.412Z,55.42
2022-11-06T16:58:00.056Z,49.97
2022-11-06T17:00:29.610Z,50.45
2022-11-06T17:03:19.121Z,53.28
2022-11-06T17:05:53.897Z,49.85
2022-11-06T17:08:30.799Z,49.33
2022-11-06T17:10:58.689Z,52.30
2022-11-06T17:13:35.571Z,49.50
2022-11-06T17:16:04.100Z,51.92
2022-11-06T17:18:32.623Z,52.67
2022-11-06T17:21:07.278Z,45.33
2022-11-06T17:23:34.888Z,47.92
2022-11-06T17:26:04.272Z,47.47
2022-11-06T17:28:31.565Z,47.38
2022-11-06T17:30:58.934Z,47.40
2022-11-06T17:33:26.065Z,45.33
2022-11-06T17:35:53.354Z,53.17
2022-11-06T17:38:20.488Z,54.53
2022-11-06T17:40:47.899Z,50.97
2022-11-06T17:43:15.517Z,50.13
2022-11-06T17:45:44.775Z,49.28
2022-11-06T17:48:12.020Z,52.90
2022-11-06T17:50:57.831Z,53.05
2022-11-06T17:53:24.986Z,49.47
2022-11-06T17:55:52.605Z,52.63
2022-11-06T17:58:19.858Z,52.38
2022-11-06T18:00:47.031Z,51.58
2022-11-06T18:03:19.027Z,53.15
2022-11-06T18:05:46.828Z,56.25
2022-11-06T18:08:15.161Z,61.72
2022-11-06T18:10:42.641Z,63.17
2022-11-06T18:13:09.902Z,55.30
2022-11-06T18:15:37.451Z,59.22
2022-11-06T18:18:04.731Z,59.88
2022-11-06T18:20:31.938Z,59.67
2022-11-06T18:22:59.119Z,59.95
2022-11-06T18:25:26.245Z,62.53
2022-11-06T18:27:53.428Z,61.17
2022-11-06T18:30:20.563Z,58.67
2022-11-06T18:32:47.681Z,65.57
2022-11-06T18:35:14.954Z,60.15
2022-11-06T18:37:42.081Z,59.42
2022-11-06T18:40:09.537Z,66.95
2022-11-06T18:42:36.902Z,61.78
2022-11-06T18:45:04.106Z,63.22
2022-11-06T18:47:31.271Z,59.88
2022-11-06T18:49:58.504Z,60.00
2022-11-06T18:52:51.747Z,60.60
2022-11-06T18:55:12.989Z,58.90
2022-11-06T18:57:40.145Z,64.05
2022-11-06T19:00:07.756Z,59.40
2022-11-06T19:02:35.090Z,61.83
2022-11-06T19:05:02.824Z,66.32
2022-11-06T19:07:30.023Z,63.83
2022-11-06T19:09:57.390Z,60.75
2022-11-06T19:12:24.525Z,63.30
2022-11-06T19:14:51.659Z,67.90
2022-11-06T19:17:18.854Z,64.00
2022-11-06T19:19:47.035Z,67.75
2022-11-06T19:22:14.148Z,63.15
2022-11-06T19:24:41.675Z,63.00
2022-11-06T19:27:08.934Z,63.75
2022-11-06T19:29:36.420Z,57.72
2022-11-06T19:32:03.647Z,63.53
2022-11-06T19:34:34.198Z,64.03
2022-11-06T19:37:05.357Z,70.68
2022-11-06T19:39:32.505Z,65.03
2022-11-06T19:42:01.010Z,65.50
2022-11-06T19:44:28.238Z,67.55
2022-11-06T19:46:55.453Z,61.35
2022-11-06T19:49:22.662Z,61.55
2022-11-06T19:51:49.937Z,66.60
2022-11-06T19:54:17.134Z,65.57
2022-11-06T19:57:29.254Z,62.60
2022-11-06T19:59:31.755Z,66.18
2022-11-06T20:01:58.997Z,62.15
2022-11-06T20:04:26.315Z,62.95
2022-11-06T20:06:53.562Z,62.72
2022-11-06T20:09:20.686Z,63.20
2022-11-06T20:11:47.802Z,64.32
2022-11-06T20:14:18.746Z,68.95
2022-11-06T20:16:45.952Z,60.97
2022-11-06T20:19:13.290Z,59.25
2022-11-06T20:21:40.585Z,59.92
2022-11-06T20:24:07.831Z,64.40
2022-11-06T20:26:35.156Z,61.55
2022-11-06T20:29:02.483Z,62.92
2022-11-06T20:31:29.687Z,58.33
2022-11-06T20:33:57.681Z,61.45
2022-11-06T20:36:26.082Z,62.08
2022-11-06T20:38:54.317Z,54.78
2022-11-06T20:41:21.830Z,61.78
2022-11-06T20:43:49.016Z,63.28
2022-11-06T20:46:17.137Z,60.60
2022-11-06T20:48:45.439Z,56.97
2022-11-06T20:51:20.352Z,60.13
2022-11-06T20:53:47.749Z,60.20
2022-11-06T20:56:15.955Z,57.53
2022-11-06T20:58:43.865Z,57.63
2022-11-06T21:01:17.230Z,60.30
2022-11-06T21:03:44.673Z,60.22
2022-11-06T21:06:11.945Z,61.10
2022-11-06T21:08:40.135Z,59.40
2022-11-06T21:11:07.439Z,59.00
2022-11-06T21:13:35.237Z,59.08
2022-11-06T21:16:03.705Z,58.47
2022-11-06T21:18:31.099Z,59.55
2022-11-06T21:20:58.220Z,56.38
2022-11-06T21:23:25.330Z,60.17
2022-11-06T21:25:52.751Z,58.22
2022-11-06T21:28:19.899Z,54.35
2022-11-06T21:30:48.192Z,58.90
2022-11-06T21:33:16.139Z,57.30
2022-11-06T21:35:43.497Z,55.17
2022-11-06T21:38:10.623Z,61.22
2022-11-06T21:40:39.318Z,57.35
2022-11-06T21:43:06.673Z,61.25
2022-11-06T21:45:33.978Z,57.28
2022-11-06T21:48:01.549Z,57.17
2022-11-06T21:50:30.227Z,63.55
2022-11-06T21:53:16.077Z,53.85
2022-11-06T21:55:58.540Z,61.30
2022-11-06T21:58:25.752Z,58.40
2022-11-06T22:00:52.904Z,57.22
2022-11-06T22:03:20.067Z,59.00
2022-11-06T22:05:47.435Z,56.28
2022-11-06T22:08:14.856Z,55.42
2022-11-06T22:10:42.183Z,66.18
2022-11-06T22:13:09.390Z,62.55
2022-11-06T22:15:36.525Z,61.28
2022-11-06T22:18:03.750Z,65.20
2022-11-06T22:20:31.124Z,60.70
2022-11-06T22:22:58.232Z,57.47
2022-11-06T22:25:25.417Z,61.78
2022-11-06T22:27:52.798Z,59.70
2022-11-06T22:30:20.019Z,63.13
2022-11-06T22:32:47.192Z,65.72
2022-11-06T22:35:14.527Z,58.88
2022-11-06T22:37:41.683Z,59.53
2022-11-06T22:40:09.237Z,57.17
2022-11-06T22:42:36.554Z,63.70
2022-11-06T22:45:03.781Z,63.58
2022-11-06T22:47:31.036Z,62.13
2022-11-06T22:50:00.864Z,59.03
2022-11-06T22:52:28.058Z,69.22
2022-11-06T22:54:55.320Z,60.28
2022-11-06T22:57:22.603Z,57.00
2022-11-06T22:59:49.741Z,63.33
2022-11-06T23:02:16.999Z,64.95
2022-11-06T23:04:44.381Z,62.85
2022-11-06T23:07:11.559Z,67.47
2022-11-06T23:09:38.725Z,64.10
2022-11-06T23:12:06.107Z,70.72
2022-11-06T23:14:33.402Z,70.65
2022-11-06T23:17:00.874Z,68.30
2022-11-06T23:19:29.834Z,66.82
2022-11-06T23:22:16.978Z,70.28
2022-11-06T23:24:44.728Z,70.00
2022-11-06T23:27:12.492Z,70.60
2022-11-06T23:29:39.905Z,71.88
2022-11-06T23:32:07.234Z,77.72
2022-11-06T23:34:37.004Z,76.22
2022-11-06T23:37:04.266Z,69.32
2022-11-06T23:39:31.548Z,70.50
2022-11-06T23:41:58.697Z,72.55
2022-11-06T23:44:44.507Z,72.63
2022-11-06T23:47:11.632Z,77.43
2022-11-06T23:49:38.819Z,70.78
2022-11-06T23:52:06.228Z,74.93
2022-11-06T23:54:33.664Z,68.57
2022-11-06T23:57:03.687Z,73.53
2022-11-06T23:59:30.916Z,79.90
